Time;durP1;ratioP1;P1;durP2;ratioP2;P2;SDS_P1;SDS_P2;PMS_P1;PMS_P2;Temp;Humidity;BMP_temperature;BMP_pressure;BME280_temperature;BME280_humidity;BME280_pressure;Samples;Min_cycle;Max_cycle;Signal;HPM_P1;HPM_P2
2024/01/28 00:00:33;;;;;;;12.18;5.78;;;;;;;;;;5032225;28;20420;-61
2024/01/28 00:02:59;;;;;;;12.43;5.65;;;;;;;;;;5050346;28;20757;-60
2024/01/28 00:05:24;;;;;;;14.37;7.20;;;;;;;;;;5032681;28;20432;-60
2024/01/28 00:07:49;;;;;;;14.73;6.87;;;;;;;;;;5049846;28;20400;-60
2024/01/28 00:10:15;;;;;;;15.50;6.90;;;;;;;;;;5049554;28;20765;-60
2024/01/28 00:12:40;;;;;;;14.32;5.80;;;;;;;;;;5050728;28;20408;-61
2024/01/28 00:15:06;;;;;;;15.50;6.23;;;;;;;;;;5049381;28;20444;-61
2024/01/28 00:17:31;;;;;;;11.93;6.35;;;;;;;;;;5050129;28;20955;-61
2024/01/28 00:19:57;;;;;;;14.93;6.43;;;;;;;;;;5050445;28;20421;-60
2024/01/28 00:22:23;;;;;;;14.17;5.70;;;;;;;;;;5049099;28;20468;-60
2024/01/28 00:24:48;;;;;;;12.20;6.53;;;;;;;;;;5050216;28;20401;-60
2024/01/28 00:27:13;;;;;;;14.37;6.30;;;;;;;;;;5050048;28;20423;-61
2024/01/28 00:29:39;;;;;;;16.17;6.40;;;;;;;;;;5053292;28;20394;-60
2024/01/28 00:32:04;;;;;;;13.33;6.23;;;;;;;;;;5053992;28;20404;-61
2024/01/28 00:34:29;;;;;;;14.97;6.40;;;;;;;;;;5054101;28;20394;-61
2024/01/28 00:36:55;;;;;;;11.57;5.57;;;;;;;;;;5053411;28;20621;-60
2024/01/28 00:39:20;;;;;;;13.57;5.40;;;;;;;;;;5053233;28;20845;-61
2024/01/28 00:41:45;;;;;;;14.40;6.27;;;;;;;;;;5053900;28;20741;-61
2024/01/28 00:44:10;;;;;;;13.57;6.03;;;;;;;;;;5052572;28;20568;-61
2024/01/28 00:46:36;;;;;;;13.57;6.00;;;;;;;;;;5054011;28;20400;-61
2024/01/28 00:49:02;;;;;;;16.73;6.30;;;;;;;;;;5052771;28;20413;-61
2024/01/28 00:51:27;;;;;;;12.47;6.63;;;;;;;;;;5053716;28;20876;-61
2024/01/28 00:53:53;;;;;;;11.77;5.87;;;;;;;;;;5053491;28;20429;-61
2024/01/28 00:56:18;;;;;;;15.60;8.20;;;;;;;;;;5034334;28;20769;-61
2024/01/28 00:58:44;;;;;;;15.53;7.93;;;;;;;;;;5053359;28;20401;-61
2024/01/28 01:01:10;;;;;;;14.55;6.40;;;;;;;;;;5053036;28;20484;-61
2024/01/28 01:03:35;;;;;;;14.43;5.70;;;;;;;;;;5053171;28;21000;-61
2024/01/28 01:06:00;;;;;;;14.23;5.90;;;;;;;;;;5052868;28;20900;-62
2024/01/28 01:08:26;;;;;;;14.23;5.87;;;;;;;;;;5053246;28;20405;-61
2024/01/28 01:10:51;;;;;;;16.33;6.00;;;;;;;;;;5052717;28;20397;-60
2024/01/28 01:13:16;;;;;;;15.97;5.67;;;;;;;;;;5052624;28;20399;-61
2024/01/28 01:15:42;;;;;;;14.23;6.00;;;;;;;;;;5035557;28;20742;-60
2024/01/28 01:18:07;;;;;;;13.20;6.00;;;;;;;;;;5052357;28;20402;-61
2024/01/28 01:20:33;;;;;;;13.83;5.90;;;;;;;;;;5052883;28;20706;-61
2024/01/28 01:22:58;;;;;;;14.02;6.07;;;;;;;;;;5053278;28;20423;-60
2024/01/28 01:25:24;;;;;;;19.48;6.20;;;;;;;;;;5033599;28;20444;-61
2024/01/28 01:27:49;;;;;;;15.30;6.07;;;;;;;;;;5053070;28;20401;-61
2024/01/28 01:30:15;;;;;;;17.10;6.07;;;;;;;;;;5052482;28;20401;-61
2024/01/28 01:32:40;;;;;;;15.77;5.93;;;;;;;;;;5052635;28;20458;-60
2024/01/28 01:35:07;;;;;;;14.60;5.97;;;;;;;;;;5052437;28;20420;-61
2024/01/28 01:37:33;;;;;;;15.27;5.82;;;;;;;;;;5052755;28;20402;-61
2024/01/28 01:39:58;;;;;;;15.47;5.63;;;;;;;;;;5051237;28;20787;-61
2024/01/28 01:42:23;;;;;;;16.13;6.43;;;;;;;;;;5052342;28;20374;-61
2024/01/28 01:44:48;;;;;;;15.10;6.13;;;;;;;;;;5052774;28;20404;-61
2024/01/28 01:47:14;;;;;;;15.63;6.47;;;;;;;;;;5051658;28;20400;-61
2024/01/28 01:49:39;;;;;;;14.87;6.60;;;;;;;;;;5052527;28;20405;-61
2024/01/28 01:52:06;;;;;;;15.63;7.07;;;;;;;;;;5052301;28;20481;-60
2024/01/28 01:54:31;;;;;;;16.25;6.75;;;;;;;;;;5051812;28;20409;-61
2024/01/28 01:56:56;;;;;;;15.00;7.00;;;;;;;;;;5051874;28;20405;-60
2024/01/28 01:59:22;;;;;;;15.93;6.90;;;;;;;;;;5051470;28;20370;-61
2024/01/28 02:01:47;;;;;;;16.93;6.73;;;;;;;;;;5052475;28;20458;-61
2024/01/28 02:04:13;;;;;;;15.83;6.83;;;;;;;;;;5052147;28;20760;-61
2024/01/28 02:06:38;;;;;;;17.45;7.10;;;;;;;;;;5051713;28;20884;-61
2024/01/28 02:09:05;;;;;;;18.53;7.60;;;;;;;;;;5051648;28;20403;-61
2024/01/28 02:11:30;;;;;;;15.07;6.78;;;;;;;;;;5051965;28;20749;-61
2024/01/28 02:13:56;;;;;;;16.83;6.83;;;;;;;;;;5033746;28;20447;-61
2024/01/28 02:16:23;;;;;;;14.80;6.23;;;;;;;;;;5051190;28;20400;-60
2024/01/28 02:18:48;;;;;;;12.90;6.40;;;;;;;;;;5052246;28;20385;-61
2024/01/28 02:21:14;;;;;;;13.13;6.20;;;;;;;;;;5050844;28;20462;-60
2024/01/28 02:23:39;;;;;;;15.77;5.90;;;;;;;;;;5051635;28;20409;-61
2024/01/28 02:26:04;;;;;;;15.23;5.85;;;;;;;;;;5051424;28;20401;-61
2024/01/28 02:28:30;;;;;;;14.40;5.90;;;;;;;;;;5033165;28;20394;-60
2024/01/28 02:30:55;;;;;;;13.43;5.73;;;;;;;;;;5051789;28;20401;-60
2024/01/28 02:33:20;;;;;;;17.50;5.97;;;;;;;;;;5051568;28;20408;-61
2024/01/28 02:35:45;;;;;;;14.33;5.80;;;;;;;;;;5045480;28;20500;-60
2024/01/28 02:38:11;;;;;;;12.90;5.43;;;;;;;;;;5034363;28;20413;-61
2024/01/28 02:40:37;;;;;;;15.95;6.63;;;;;;;;;;5031636;28;20767;-61
2024/01/28 02:43:04;;;;;;;14.83;5.80;;;;;;;;;;5015008;28;20410;-60
2024/01/28 02:45:30;;;;;;;14.45;6.05;;;;;;;;;;4999409;28;20403;-61
2024/01/28 02:47:56;;;;;;;15.07;5.97;;;;;;;;;;5018750;28;20751;-61
2024/01/28 02:50:21;;;;;;;17.37;5.50;;;;;;;;;;5022688;28;20435;-61
2024/01/28 02:52:47;;;;;;;16.20;5.93;;;;;;;;;;5026996;28;20773;-61
2024/01/28 02:55:12;;;;;;;17.80;6.30;;;;;;;;;;5038829;28;20497;-61
2024/01/28 02:57:37;;;;;;;14.93;5.38;;;;;;;;;;5023052;28;20752;-61
2024/01/28 03:00:04;;;;;;;16.10;5.40;;;;;;;;;;5023388;28;20411;-61
2024/01/28 03:02:29;;;;;;;13.60;5.72;;;;;;;;;;5026496;28;20811;-61
2024/01/28 03:04:54;;;;;;;16.97;6.60;;;;;;;;;;5015173;28;20537;-61
2024/01/28 03:07:19;;;;;;;13.77;5.70;;;;;;;;;;5015166;28;20375;-61
2024/01/28 03:09:45;;;;;;;15.00;6.10;;;;;;;;;;5018885;28;20902;-61
2024/01/28 03:12:10;;;;;;;12.50;5.63;;;;;;;;;;5042800;28;20823;-61
2024/01/28 03:14:35;;;;;;;15.60;6.10;;;;;;;;;;5030216;28;20406;-61
2024/01/28 03:17:01;;;;;;;13.73;5.60;;;;;;;;;;5022770;28;20399;-62
2024/01/28 03:19:26;;;;;;;12.05;5.53;;;;;;;;;;5023377;28;20383;-61
2024/01/28 03:21:52;;;;;;;12.90;5.50;;;;;;;;;;5023796;28;21050;-60
2024/01/28 03:24:17;;;;;;;14.65;5.63;;;;;;;;;;5041855;28;20428;-61
2024/01/28 03:26:42;;;;;;;12.93;5.50;;;;;;;;;;5036402;28;20472;-60
2024/01/28 03:29:08;;;;;;;15.97;5.93;;;;;;;;;;5033911;28;20732;-61
2024/01/28 03:31:33;;;;;;;16.57;5.77;;;;;;;;;;5034183;28;20398;-60
2024/01/28 03:33:58;;;;;;;15.00;5.77;;;;;;;;;;5041839;28;20421;-61
2024/01/28 03:36:24;;;;;;;13.60;5.10;;;;;;;;;;5043530;28;20393;-61
2024/01/28 03:38:49;;;;;;;14.27;5.90;;;;;;;;;;5048733;28;20425;-61
2024/01/28 03:41:15;;;;;;;14.18;5.75;;;;;;;;;;5050451;28;20390;-61
2024/01/28 03:43:42;;;;;;;14.20;5.53;;;;;;;;;;5048801;28;20901;-61
2024/01/28 03:46:07;;;;;;;14.57;5.75;;;;;;;;;;5047949;28;20514;-61
2024/01/28 03:48:32;;;;;;;15.20;5.70;;;;;;;;;;5050732;28;20908;-61
2024/01/28 03:50:58;;;;;;;12.83;5.30;;;;;;;;;;5050677;28;20401;-60
2024/01/28 03:53:23;;;;;;;14.10;5.50;;;;;;;;;;5049445;28;20476;-61
2024/01/28 03:55:48;;;;;;;15.97;5.87;;;;;;;;;;5050699;28;20401;-61
2024/01/28 03:58:14;;;;;;;16.93;6.27;;;;;;;;;;5050155;28;20530;-61
2024/01/28 04:00:39;;;;;;;11.73;5.93;;;;;;;;;;5049640;28;20472;-61
2024/01/28 04:03:04;;;;;;;14.63;5.70;;;;;;;;;;5051625;28;20459;-61
2024/01/28 04:05:32;;;;;;;14.80;6.07;;;;;;;;;;5054647;28;20397;-61
2024/01/28 04:07:57;;;;;;;15.75;5.78;;;;;;;;;;5053888;28;20393;-61
2024/01/28 04:10:23;;;;;;;11.70;5.60;;;;;;;;;;5054062;28;20381;-61
2024/01/28 04:12:48;;;;;;;14.70;5.20;;;;;;;;;;5054494;28;20476;-61
2024/01/28 04:15:13;;;;;;;16.95;6.60;;;;;;;;;;5052746;28;20416;-61
2024/01/28 04:17:38;;;;;;;13.47;5.70;;;;;;;;;;5054264;28;20441;-60
2024/01/28 04:20:04;;;;;;;14.63;5.73;;;;;;;;;;5053349;28;20488;-61
2024/01/28 04:22:30;;;;;;;14.50;5.93;;;;;;;;;;5054314;28;20402;-61
2024/01/28 04:24:55;;;;;;;13.33;6.00;;;;;;;;;;5054147;28;20802;-61
2024/01/28 04:27:20;;;;;;;17.67;6.73;;;;;;;;;;5053408;28;20401;-61
2024/01/28 04:29:46;;;;;;;12.05;6.07;;;;;;;;;;5053781;28;20459;-61
2024/01/28 04:32:11;;;;;;;17.37;6.10;;;;;;;;;;5053717;28;20397;-60
2024/01/28 04:34:36;;;;;;;15.13;6.27;;;;;;;;;;5053432;28;20425;-61
2024/01/28 04:37:02;;;;;;;15.50;6.30;;;;;;;;;;5053401;28;20413;-61
2024/01/28 04:39:27;;;;;;;15.13;6.38;;;;;;;;;;5053641;28;20477;-62
2024/01/28 04:41:53;;;;;;;14.77;6.43;;;;;;;;;;5053071;28;20450;-61
2024/01/28 04:44:19;;;;;;;15.60;6.07;;;;;;;;;;5053087;28;20401;-61
2024/01/28 04:46:45;;;;;;;14.90;6.18;;;;;;;;;;5053750;28;20446;-60
2024/01/28 04:49:10;;;;;;;14.10;6.60;;;;;;;;;;5052374;28;20446;-61
2024/01/28 04:51:36;;;;;;;14.90;5.80;;;;;;;;;;5053800;28;20381;-61
2024/01/28 04:54:01;;;;;;;13.70;5.83;;;;;;;;;;5053256;28;20393;-62
2024/01/28 04:56:27;;;;;;;12.73;5.43;;;;;;;;;;5034933;28;20452;-61
2024/01/28 04:58:52;;;;;;;13.77;5.77;;;;;;;;;;5053653;28;20867;-61
2024/01/28 05:01:17;;;;;;;13.90;5.65;;;;;;;;;;5035070;28;20393;-61
2024/01/28 05:03:43;;;;;;;13.27;6.57;;;;;;;;;;5052660;28;20626;-61
2024/01/28 05:06:09;;;;;;;13.90;5.80;;;;;;;;;;5053072;28;20401;-61
2024/01/28 05:08:35;;;;;;;15.43;5.70;;;;;;;;;;5053676;28;20425;-61
2024/01/28 05:11:00;;;;;;;14.98;5.53;;;;;;;;;;5052567;28;20477;-61
2024/01/28 05:13:25;;;;;;;14.43;6.13;;;;;;;;;;5052983;28;20398;-61
2024/01/28 05:15:51;;;;;;;12.67;4.93;;;;;;;;;;5052085;28;20758;-61
2024/01/28 05:18:16;;;;;;;14.40;5.50;;;;;;;;;;5051707;28;20417;-61
2024/01/28 05:20:42;;;;;;;13.02;5.93;;;;;;;;;;5053187;28;20398;-61
2024/01/28 05:23:07;;;;;;;14.10;5.33;;;;;;;;;;5052848;28;20393;-61
2024/01/28 05:25:33;;;;;;;14.20;6.17;;;;;;;;;;5052159;28;20419;-61
2024/01/28 05:27:59;;;;;;;15.00;5.70;;;;;;;;;;5053211;28;20401;-61
2024/01/28 05:30:24;;;;;;;13.63;5.57;;;;;;;;;;5051876;28;20435;-60
2024/01/28 05:32:50;;;;;;;13.80;5.43;;;;;;;;;;5052776;28;20820;-61
2024/01/28 05:35:15;;;;;;;12.70;5.32;;;;;;;;;;5052393;28;20900;-61
2024/01/28 05:37:41;;;;;;;13.17;5.50;;;;;;;;;;5052428;28;20416;-61
2024/01/28 05:40:08;;;;;;;14.43;5.22;;;;;;;;;;5052115;28;20839;-61
2024/01/28 05:42:33;;;;;;;12.85;5.50;;;;;;;;;;5053176;28;20401;-61
2024/01/28 05:44:58;;;;;;;12.30;5.03;;;;;;;;;;5051865;28;20385;-61
2024/01/28 05:47:24;;;;;;;10.97;4.80;;;;;;;;;;5051879;28;20535;-61
2024/01/28 05:49:49;;;;;;;11.13;5.00;;;;;;;;;;5052580;28;20405;-61
2024/01/28 05:52:15;;;;;;;14.00;5.10;;;;;;;;;;5051322;28;20409;-61
2024/01/28 05:54:42;;;;;;;11.93;4.50;;;;;;;;;;5038899;28;20498;-60
2024/01/28 05:57:08;;;;;;;13.05;5.03;;;;;;;;;;5040468;28;20544;-61
2024/01/28 05:59:33;;;;;;;11.47;4.90;;;;;;;;;;5025726;28;20477;-61
2024/01/28 06:01:58;;;;;;;13.18;4.75;;;;;;;;;;5028051;28;20779;-61
2024/01/28 06:04:24;;;;;;;11.87;4.67;;;;;;;;;;5025467;28;20531;-60
2024/01/28 06:06:49;;;;;;;12.90;4.90;;;;;;;;;;5036052;28;20731;-61
2024/01/28 06:09:14;;;;;;;11.13;4.80;;;;;;;;;;5016188;28;20526;-61
2024/01/28 06:11:42;;;;;;;14.23;5.13;;;;;;;;;;5030268;28;20497;-61
2024/01/28 06:14:07;;;;;;;10.35;4.50;;;;;;;;;;5034507;28;20399;-61
2024/01/28 06:16:32;;;;;;;11.20;4.60;;;;;;;;;;5022830;28;20813;-60
2024/01/28 06:18:58;;;;;;;10.13;4.88;;;;;;;;;;5024815;28;20890;-61
2024/01/28 06:21:23;;;;;;;13.33;5.20;;;;;;;;;;5023249;28;20486;-61
2024/01/28 06:23:48;;;;;;;12.37;5.37;;;;;;;;;;5024623;28;20418;-61
2024/01/28 06:26:13;;;;;;;12.50;4.90;;;;;;;;;;5023873;28;20479;-61
2024/01/28 06:28:39;;;;;;;11.80;5.10;;;;;;;;;;5028874;28;20412;-61
2024/01/28 06:31:04;;;;;;;13.30;5.17;;;;;;;;;;5035113;28;20901;-61
2024/01/28 06:33:29;;;;;;;13.87;5.03;;;;;;;;;;5017287;28;21125;-61
2024/01/28 06:35:55;;;;;;;12.03;4.50;;;;;;;;;;5029749;28;20417;-60
2024/01/28 06:38:20;;;;;;;12.63;5.00;;;;;;;;;;5023806;28;20399;-61
2024/01/28 06:40:45;;;;;;;13.83;4.67;;;;;;;;;;5023814;28;20740;-61
2024/01/28 06:43:11;;;;;;;11.63;4.60;;;;;;;;;;5023694;28;20399;-61
2024/01/28 06:45:36;;;;;;;11.40;5.00;;;;;;;;;;5024604;28;20391;-60
2024/01/28 06:48:01;;;;;;;10.82;4.22;;;;;;;;;;5022796;28;21277;-61
2024/01/28 06:50:27;;;;;;;14.40;5.10;;;;;;;;;;5019587;28;20398;-60
2024/01/28 06:52:52;;;;;;;9.83;4.40;;;;;;;;;;5015530;28;20406;-61
2024/01/28 06:55:17;;;;;;;13.13;5.23;;;;;;;;;;5014506;28;20629;-61
2024/01/28 06:57:43;;;;;;;10.60;4.20;;;;;;;;;;5020484;28;20411;-61
2024/01/28 07:00:14;;;;;;;10.77;4.77;;;;;;;;;;5023652;28;20388;-61
2024/01/28 07:02:40;;;;;;;10.80;4.65;;;;;;;;;;5024112;28;20443;-61
2024/01/28 07:05:07;;;;;;;13.45;4.75;;;;;;;;;;5043188;28;20473;-61
2024/01/28 07:07:32;;;;;;;12.77;4.50;;;;;;;;;;5043538;28;20432;-61
2024/01/28 07:09:57;;;;;;;11.53;4.70;;;;;;;;;;5043118;28;20928;-60
2024/01/28 07:12:23;;;;;;;10.77;4.50;;;;;;;;;;5039869;28;20405;-61
2024/01/28 07:14:48;;;;;;;10.33;4.20;;;;;;;;;;5020573;28;20407;-61
2024/01/28 07:17:13;;;;;;;11.57;4.43;;;;;;;;;;5015127;28;20438;-61
2024/01/28 07:19:40;;;;;;;12.67;4.77;;;;;;;;;;5019127;28;20490;-60
2024/01/28 07:22:06;;;;;;;11.98;4.45;;;;;;;;;;5023179;28;20482;-61
2024/01/28 07:24:31;;;;;;;11.00;4.80;;;;;;;;;;5023434;28;20421;-61
2024/01/28 07:26:56;;;;;;;11.63;4.37;;;;;;;;;;5024552;28;20751;-61
2024/01/28 07:29:22;;;;;;;10.40;4.22;;;;;;;;;;5022947;28;20391;-61
2024/01/28 07:31:47;;;;;;;11.00;4.43;;;;;;;;;;5022935;28;20755;-61
2024/01/28 07:34:12;;;;;;;11.43;4.57;;;;;;;;;;5021981;28;20399;-61
2024/01/28 07:36:37;;;;;;;10.13;4.10;;;;;;;;;;5015366;28;20434;-61
2024/01/28 07:39:06;;;;;;;11.70;4.23;;;;;;;;;;5012749;28;20400;-59
2024/01/28 07:41:34;;;;;;;9.82;4.10;;;;;;;;;;5011052;28;20897;-59
2024/01/28 07:44:00;;;;;;;11.98;4.75;;;;;;;;;;5022506;28;20413;-59
2024/01/28 07:46:25;;;;;;;12.17;4.10;;;;;;;;;;5042094;28;20397;-60
2024/01/28 07:48:50;;;;;;;10.63;4.27;;;;;;;;;;5038258;28;20411;-61
2024/01/28 07:51:16;;;;;;;9.93;4.30;;;;;;;;;;5021773;28;20399;-60
2024/01/28 07:53:41;;;;;;;10.43;4.03;;;;;;;;;;5023190;28;20407;-60
2024/01/28 07:56:06;;;;;;;11.70;4.30;;;;;;;;;;5023119;28;20407;-61
2024/01/28 07:58:32;;;;;;;11.10;3.80;;;;;;;;;;5015469;28;20942;-60
2024/01/28 08:00:57;;;;;;;12.10;4.37;;;;;;;;;;5023239;28;20425;-60
2024/01/28 08:03:22;;;;;;;10.93;4.10;;;;;;;;;;5045761;28;20480;-60
2024/01/28 08:05:47;;;;;;;12.20;4.57;;;;;;;;;;5049633;28;20893;-60
2024/01/28 08:08:13;;;;;;;13.00;4.27;;;;;;;;;;5032365;28;20404;-60
2024/01/28 08:10:38;;;;;;;10.43;4.50;;;;;;;;;;5050489;28;20476;-61
2024/01/28 08:13:03;;;;;;;11.23;4.40;;;;;;;;;;5048318;28;20406;-61
2024/01/28 08:15:29;;;;;;;11.13;4.32;;;;;;;;;;5049513;28;20900;-61
2024/01/28 08:17:56;;;;;;;9.73;3.87;;;;;;;;;;5050284;28;20413;-60
2024/01/28 08:20:21;;;;;;;11.07;4.13;;;;;;;;;;5049141;28;20416;-61
2024/01/28 08:22:46;;;;;;;9.97;3.90;;;;;;;;;;5050703;28;20896;-61
2024/01/28 08:25:12;;;;;;;11.63;4.50;;;;;;;;;;5049778;28;20420;-61
2024/01/28 08:27:37;;;;;;;10.63;3.88;;;;;;;;;;5049571;28;20437;-60
2024/01/28 08:30:03;;;;;;;10.70;4.13;;;;;;;;;;5031855;28;20416;-61
2024/01/28 08:32:28;;;;;;;9.13;3.65;;;;;;;;;;5050462;28;20402;-60
2024/01/28 08:34:53;;;;;;;11.57;3.90;;;;;;;;;;5049317;28;20447;-61
2024/01/28 08:37:21;;;;;;;10.60;4.20;;;;;;;;;;5049732;28;20460;-60
2024/01/28 08:39:46;;;;;;;10.98;4.15;;;;;;;;;;5050132;28;20432;-61
2024/01/28 08:42:12;;;;;;;11.03;4.13;;;;;;;;;;5049300;28;20406;-61
2024/01/28 08:44:37;;;;;;;11.47;4.20;;;;;;;;;;5049812;28;20401;-60
2024/01/28 08:47:03;;;;;;;9.10;3.90;;;;;;;;;;5049813;28;20397;-61
2024/01/28 08:49:29;;;;;;;11.13;4.00;;;;;;;;;;5051218;28;20401;-60
2024/01/28 08:51:54;;;;;;;8.87;3.90;;;;;;;;;;5053181;28;20397;-60
2024/01/28 08:54:20;;;;;;;11.33;3.87;;;;;;;;;;5063009;28;20500;-60
2024/01/28 08:56:47;;;;;;;9.88;3.88;;;;;;;;;;5073686;28;20475;-60
2024/01/28 08:59:13;;;;;;;13.15;4.10;;;;;;;;;;5073003;28;20396;-60
2024/01/28 09:01:38;;;;;;;11.10;4.05;;;;;;;;;;5062403;28;20926;-60
2024/01/28 09:04:05;;;;;;;10.63;4.40;;;;;;;;;;5053179;28;20451;-61
2024/01/28 09:06:31;;;;;;;10.95;3.70;;;;;;;;;;5052795;28;20824;-60
2024/01/28 09:08:56;;;;;;;10.20;3.93;;;;;;;;;;5051941;28;20404;-60
2024/01/28 09:11:21;;;;;;;11.00;3.95;;;;;;;;;;5055552;28;20384;-60
2024/01/28 09:13:47;;;;;;;10.03;4.07;;;;;;;;;;5059401;28;20410;-60
2024/01/28 09:16:12;;;;;;;9.33;3.40;;;;;;;;;;5051854;28;20393;-60
2024/01/28 09:18:42;;;;;;;9.27;3.60;;;;;;;;;;5053246;28;20870;-60
2024/01/28 09:21:07;;;;;;;9.45;3.30;;;;;;;;;;5052589;28;20397;-61
2024/01/28 09:23:32;;;;;;;7.97;3.20;;;;;;;;;;5052574;28;20408;-60
2024/01/28 09:25:58;;;;;;;7.73;3.00;;;;;;;;;;5052830;28;20398;-60
2024/01/28 09:28:23;;;;;;;7.73;3.03;;;;;;;;;;5034650;28;20381;-60
2024/01/28 09:30:48;;;;;;;9.13;3.40;;;;;;;;;;5052227;28;20405;-61
2024/01/28 09:33:14;;;;;;;7.73;2.90;;;;;;;;;;5052849;28;20931;-61
2024/01/28 09:35:39;;;;;;;7.70;2.93;;;;;;;;;;5044921;28;20896;-61
2024/01/28 09:38:06;;;;;;;8.52;2.85;;;;;;;;;;5051362;28;20451;-60
2024/01/28 09:40:31;;;;;;;7.85;2.65;;;;;;;;;;5052796;28;20896;-61
2024/01/28 09:42:59;;;;;;;8.27;2.60;;;;;;;;;;5052738;28;20390;-61
2024/01/28 09:45:25;;;;;;;7.28;2.50;;;;;;;;;;5051305;28;20394;-61
2024/01/28 09:47:50;;;;;;;8.98;2.92;;;;;;;;;;5034612;28;20730;-61
2024/01/28 09:50:16;;;;;;;8.50;2.83;;;;;;;;;;5034126;28;20836;-61
2024/01/28 09:52:41;;;;;;;6.73;2.57;;;;;;;;;;5051716;28;20404;-60
2024/01/28 09:55:06;;;;;;;6.72;2.38;;;;;;;;;;5052212;28;20401;-62
2024/01/28 09:57:32;;;;;;;8.03;2.77;;;;;;;;;;5051573;28;20409;-62
2024/01/28 09:59:57;;;;;;;6.37;2.40;;;;;;;;;;5018091;28;20393;-61
2024/01/28 10:02:22;;;;;;;7.03;2.40;;;;;;;;;;5051888;28;20478;-62
2024/01/28 10:04:48;;;;;;;6.90;2.50;;;;;;;;;;5035104;28;20433;-61
2024/01/28 10:07:15;;;;;;;7.07;2.65;;;;;;;;;;5060584;28;20413;-61
2024/01/28 10:09:40;;;;;;;7.30;2.70;;;;;;;;;;5052255;28;20507;-61
2024/01/28 10:12:06;;;;;;;8.23;2.65;;;;;;;;;;5032858;28;20892;-62
2024/01/28 10:14:31;;;;;;;5.73;2.50;;;;;;;;;;5034183;28;20393;-61
2024/01/28 10:16:57;;;;;;;7.40;2.60;;;;;;;;;;5051936;28;20449;-61
2024/01/28 10:19:22;;;;;;;9.67;2.67;;;;;;;;;;5050460;28;20428;-61
2024/01/28 10:21:47;;;;;;;7.63;2.60;;;;;;;;;;5051913;28;20394;-61
2024/01/28 10:24:14;;;;;;;7.60;2.60;;;;;;;;;;5051230;28;20413;-61
2024/01/28 10:26:39;;;;;;;8.73;2.88;;;;;;;;;;5051150;28;20405;-61
2024/01/28 10:29:06;;;;;;;8.57;2.80;;;;;;;;;;5033882;28;20404;-61
2024/01/28 10:31:32;;;;;;;8.93;2.60;;;;;;;;;;5011044;28;20395;-61
2024/01/28 10:33:57;;;;;;;5.68;2.50;;;;;;;;;;5026761;28;20567;-61
2024/01/28 10:36:23;;;;;;;6.53;2.33;;;;;;;;;;5019296;28;20805;-61
2024/01/28 10:38:48;;;;;;;6.57;2.60;;;;;;;;;;5037392;28;20397;-61
2024/01/28 10:41:16;;;;;;;6.60;2.38;;;;;;;;;;5019900;28;20403;-61
2024/01/28 10:43:41;;;;;;;6.72;2.35;;;;;;;;;;5045101;28;20401;-61
2024/01/28 10:46:07;;;;;;;6.83;2.60;;;;;;;;;;5007634;28;20840;-61
2024/01/28 10:48:32;;;;;;;8.05;2.58;;;;;;;;;;5024977;28;20391;-61
2024/01/28 10:50:58;;;;;;;7.30;2.30;;;;;;;;;;5022782;28;20407;-61
2024/01/28 10:53:23;;;;;;;6.90;2.50;;;;;;;;;;5043842;28;20398;-61
2024/01/28 10:55:52;;;;;;;6.85;2.22;;;;;;;;;;5021734;28;20402;-61
2024/01/28 10:58:20;;;;;;;7.07;2.50;;;;;;;;;;5002216;28;20827;-61
2024/01/28 11:00:46;;;;;;;6.97;2.50;;;;;;;;;;5017034;28;20500;-61
2024/01/28 11:03:11;;;;;;;8.32;2.30;;;;;;;;;;5003806;28;20576;-61
2024/01/28 11:05:36;;;;;;;7.67;2.43;;;;;;;;;;5025136;28;20791;-61
2024/01/28 11:08:02;;;;;;;6.07;2.27;;;;;;;;;;5021523;28;20436;-62
2024/01/28 11:10:28;;;;;;;6.50;2.22;;;;;;;;;;5043978;28;20464;-61
2024/01/28 11:12:53;;;;;;;8.13;2.40;;;;;;;;;;5040877;28;21144;-61
2024/01/28 11:15:19;;;;;;;7.40;2.50;;;;;;;;;;5024324;28;20732;-61
2024/01/28 11:17:44;;;;;;;6.90;2.35;;;;;;;;;;5023398;28;20411;-61
2024/01/28 11:20:10;;;;;;;6.87;2.40;;;;;;;;;;5016321;28;20399;-61
2024/01/28 11:22:48;;;;;;;7.15;2.38;;;;;;;;;;5017085;28;20403;-61
2024/01/28 11:25:15;;;;;;;7.78;2.72;;;;;;;;;;5038140;28;20981;-61
2024/01/28 11:27:41;;;;;;;6.40;2.35;;;;;;;;;;5044479;28;20398;-61
2024/01/28 11:30:09;;;;;;;6.55;2.28;;;;;;;;;;5043522;28;20619;-62
2024/01/28 11:32:34;;;;;;;6.47;2.28;;;;;;;;;;5047920;28;20452;-61
2024/01/28 11:38:04;;;;;;;5.73;2.40;;;;;;;;;;5048782;28;20428;-61
2024/01/28 11:40:32;;;;;;;6.38;2.38;;;;;;;;;;5047826;28;20458;-61
2024/01/28 11:42:57;;;;;;;5.87;2.07;;;;;;;;;;5013667;28;20406;-61
2024/01/28 11:45:22;;;;;;;6.60;2.53;;;;;;;;;;5023952;28;20777;-61
2024/01/28 11:47:48;;;;;;;5.37;2.23;;;;;;;;;;5050399;28;20884;-61
2024/01/28 11:50:13;;;;;;;6.80;2.50;;;;;;;;;;5049440;28;20416;-61
2024/01/28 11:52:38;;;;;;;6.20;2.30;;;;;;;;;;5032772;28;20764;-61
2024/01/28 11:55:13;;;;;;;6.13;2.30;;;;;;;;;;5049915;28;20432;-61
2024/01/28 11:57:40;;;;;;;6.50;2.38;;;;;;;;;;5049906;28;20475;-61
2024/01/28 12:00:08;;;;;;;7.70;2.50;;;;;;;;;;5032453;28;20393;-62
2024/01/28 12:02:34;;;;;;;5.03;2.13;;;;;;;;;;5050226;28;20889;-61
2024/01/28 12:04:59;;;;;;;6.07;2.40;;;;;;;;;;5049797;28;20424;-61
2024/01/28 12:07:25;;;;;;;7.70;2.53;;;;;;;;;;5054290;28;20419;-61
2024/01/28 12:09:50;;;;;;;6.70;2.50;;;;;;;;;;5070306;28;20463;-61
2024/01/28 12:12:15;;;;;;;6.85;2.30;;;;;;;;;;5069320;28;20396;-61
2024/01/28 12:14:41;;;;;;;7.27;2.53;;;;;;;;;;5051495;28;20895;-61
2024/01/28 12:17:06;;;;;;;8.53;2.67;;;;;;;;;;5049955;28;20425;-62
2024/01/28 12:19:32;;;;;;;6.80;2.53;;;;;;;;;;5031917;28;20433;-61
2024/01/28 12:21:58;;;;;;;6.27;2.20;;;;;;;;;;5032259;28;20795;-61
2024/01/28 12:24:23;;;;;;;6.10;2.40;;;;;;;;;;5051810;28;20404;-61
2024/01/28 12:26:49;;;;;;;6.27;2.50;;;;;;;;;;5053453;28;20397;-61
2024/01/28 12:29:14;;;;;;;7.03;2.30;;;;;;;;;;5053523;28;20385;-61
2024/01/28 12:31:39;;;;;;;6.80;2.40;;;;;;;;;;5053972;28;20401;-61
2024/01/28 12:34:12;;;;;;;6.67;2.23;;;;;;;;;;5052579;28;20399;-61
2024/01/28 12:36:38;;;;;;;5.63;2.10;;;;;;;;;;5062312;28;20424;-61
2024/01/28 12:39:03;;;;;;;6.87;2.40;;;;;;;;;;5058878;28;20508;-61
2024/01/28 12:41:29;;;;;;;7.22;2.13;;;;;;;;;;5057433;28;20435;-61
2024/01/28 12:43:54;;;;;;;6.43;2.30;;;;;;;;;;5064238;28;20399;-61
2024/01/28 12:46:20;;;;;;;6.87;2.30;;;;;;;;;;5052659;28;22651;-61
2024/01/28 12:48:45;;;;;;;6.20;2.40;;;;;;;;;;5053488;28;20401;-61
2024/01/28 12:51:10;;;;;;;6.70;2.13;;;;;;;;;;5053099;28;20402;-61
2024/01/28 12:53:36;;;;;;;6.37;2.43;;;;;;;;;;5053229;28;20408;-61
2024/01/28 12:56:01;;;;;;;5.80;2.03;;;;;;;;;;5053261;28;20860;-62
2024/01/28 12:58:26;;;;;;;5.70;2.33;;;;;;;;;;5053316;28;20397;-61
2024/01/28 13:00:52;;;;;;;5.20;2.10;;;;;;;;;;5057079;28;21519;-61
2024/01/28 13:03:17;;;;;;;5.40;2.20;;;;;;;;;;5052843;28;20389;-61
2024/01/28 13:05:43;;;;;;;5.90;2.08;;;;;;;;;;5053467;28;20397;-61
2024/01/28 13:08:08;;;;;;;6.67;2.20;;;;;;;;;;5052440;28;20406;-62
2024/01/28 13:10:33;;;;;;;6.50;2.40;;;;;;;;;;5053366;28;20401;-61
2024/01/28 13:12:58;;;;;;;5.90;2.43;;;;;;;;;;5053057;28;20485;-61
2024/01/28 13:15:24;;;;;;;7.37;2.70;;;;;;;;;;5052021;28;20400;-61
2024/01/28 13:17:49;;;;;;;5.27;2.20;;;;;;;;;;5052693;28;20413;-61
2024/01/28 13:20:14;;;;;;;7.47;2.40;;;;;;;;;;5053076;28;20406;-61
2024/01/28 13:22:43;;;;;;;8.13;2.30;;;;;;;;;;5052915;28;20905;-61
2024/01/28 13:25:10;;;;;;;6.18;2.15;;;;;;;;;;5052594;28;20908;-61
2024/01/28 13:27:35;;;;;;;6.60;2.35;;;;;;;;;;5052893;28;20822;-61
2024/01/28 13:30:00;;;;;;;6.47;2.20;;;;;;;;;;5052187;28;20974;-64
2024/01/28 13:32:26;;;;;;;6.10;2.03;;;;;;;;;;5052624;28;20794;-61
2024/01/28 13:34:51;;;;;;;5.20;2.00;;;;;;;;;;5051185;28;20410;-61
2024/01/28 13:37:17;;;;;;;6.50;2.50;;;;;;;;;;5051435;28;20428;-61
2024/01/28 13:39:42;;;;;;;6.82;2.22;;;;;;;;;;5052654;28;20397;-61
2024/01/28 13:42:08;;;;;;;5.80;2.20;;;;;;;;;;5052308;28;20397;-61
2024/01/28 13:44:33;;;;;;;5.60;2.27;;;;;;;;;;5051857;28;20390;-61
2024/01/28 13:46:59;;;;;;;6.00;2.10;;;;;;;;;;5052630;28;20915;-61
2024/01/28 13:49:25;;;;;;;6.60;2.13;;;;;;;;;;5051936;28;20397;-61
2024/01/28 13:51:51;;;;;;;6.68;2.47;;;;;;;;;;5052030;28;20393;-61
2024/01/28 13:54:16;;;;;;;6.25;2.38;;;;;;;;;;5052001;28;20496;-61
2024/01/28 13:56:41;;;;;;;5.70;2.20;;;;;;;;;;5052005;28;20477;-61
2024/01/28 13:59:06;;;;;;;6.33;2.33;;;;;;;;;;5051841;28;20808;-61
2024/01/28 14:01:32;;;;;;;6.00;2.10;;;;;;;;;;5056597;28;20397;-61
2024/01/28 14:03:57;;;;;;;6.40;2.43;;;;;;;;;;5051633;28;20436;-61
2024/01/28 14:06:23;;;;;;;6.70;2.10;;;;;;;;;;5051961;28;20501;-61
2024/01/28 14:08:49;;;;;;;7.10;2.27;;;;;;;;;;5052230;28;20792;-61
2024/01/28 14:11:14;;;;;;;8.23;2.10;;;;;;;;;;5051313;28;20438;-61
2024/01/28 14:13:39;;;;;;;4.43;1.93;;;;;;;;;;5051791;28;20429;-61
2024/01/28 14:16:05;;;;;;;5.93;2.27;;;;;;;;;;5051536;28;20420;-61
2024/01/28 14:18:30;;;;;;;5.40;2.20;;;;;;;;;;5051286;28;20415;-61
2024/01/28 14:23:59;;;;;;;5.85;2.42;;;;;;;;;;5050301;28;20431;-61
2024/01/28 14:26:24;;;;;;;5.93;2.33;;;;;;;;;;5050857;28;20405;-61
2024/01/28 14:28:52;;;;;;;7.40;2.40;;;;;;;;;;5050906;28;20452;-61
2024/01/28 14:31:30;;;;;;;6.37;2.13;;;;;;;;;;5050783;28;20401;-61